This is the latest recevied weather packets stored in our database for station/object NK2J. If no packets are shown the sender has not sent any weather packets the latest 1 day(s).
| Time | Temp. | Humidity | Pressure | Rain* | Wind** | Luminosity | Snow |
|---|---|---|---|---|---|---|---|
| 1778012751 | 22.78° C | 38% | 1012.6 hPa | 0 mm | 0.45 m/s, 60° | 191 W/m² | - |
| 1778012447 | 23.33° C | 38% | 1012.6 hPa | 0 mm | 0.45 m/s, 74° | 246 W/m² | - |
| 1778012144 | 23.89° C | 38% | 1012.6 hPa | 0 mm | 0.89 m/s, 9° | 891 W/m² | - |
| 1778011842 | 23.33° C | 40% | 1012.5 hPa | 0 mm | 1.34 m/s, 59° | 901 W/m² | - |
| 1778011540 | 23.33° C | 40% | 1012.9 hPa | 0 mm | 1.79 m/s, 70° | 879 W/m² | - |
| 1778011236 | 22.78° C | 40% | 1012.7 hPa | 0 mm | 0.89 m/s, 30° | 864 W/m² | - |
| 1778010932 | 23.89° C | 39% | 1012.6 hPa | 0 mm | 1.34 m/s, 91° | 833 W/m² | - |
| 1778010630 | 23.33° C | 38% | 1012.7 hPa | 0 mm | 0 m/s | 791 W/m² | - |
| 1778010327 | 23.33° C | 39% | 1013 hPa | 0 mm | 0.89 m/s, 62° | 708 W/m² | - |
| 1778010022 | 23.33° C | 38% | 1013 hPa | 0 mm | 0 m/s | 766 W/m² | - |
| 1778009720 | 23.33° C | 39% | 1013 hPa | 0 mm | 3.58 m/s, 110° | 812 W/m² | - |
| 1778009417 | 23.33° C | 39% | 1013.1 hPa | 0 mm | 0.89 m/s, 69° | 831 W/m² | - |
| 1778009116 | 23.33° C | 39% | 1013 hPa | 0 mm | 0 m/s | 277 W/m² | - |
| 1778008813 | 22.78° C | 40% | 1013.4 hPa | 0 mm | 0.89 m/s, 24° | 676 W/m² | - |
| 1778008511 | 22.78° C | 39% | 1013.3 hPa | 0 mm | 3.13 m/s, 88° | 439 W/m² | - |
| 1778008209 | 22.78° C | 40% | 1013.3 hPa | 0 mm | 2.68 m/s, 22° | 935 W/m² | - |
| 1778007903 | 22.22° C | 42% | 1013.4 hPa | 0 mm | 1.79 m/s, 8° | 808 W/m² | - |
| 1778007598 | 22.22° C | 43% | 1013.5 hPa | 0 mm | 0.89 m/s, 47° | 816 W/m² | - |
| 1778007296 | 22.78° C | 42% | 1013.6 hPa | 0 mm | 1.34 m/s, 26° | 865 W/m² | - |
| 1778006992 | 22.22° C | 42% | 1013.5 hPa | 0 mm | 2.68 m/s, 95° | 836 W/m² | - |
| 1778006689 | 22.22° C | 46% | 1013.5 hPa | 0 mm | 1.79 m/s, 17° | 821 W/m² | - |
| 1778006385 | 21.67° C | 42% | 1013.8 hPa | 0 mm | 0 m/s | 886 W/m² | - |
| 1778006083 | 22.22° C | 43% | 1013.7 hPa | 0 mm | 1.79 m/s, 343° | 238 W/m² | - |
| 1778005779 | 21.67° C | 43% | 1013.7 hPa | 0 mm | 0.89 m/s, 39° | 400 W/m² | - |
| 1778005477 | 22.22° C | 42% | 1013.7 hPa | 0 mm | 0 m/s | 221 W/m² | - |
* Rain latest hour (hover to see other rain measurements)
** Current wind speed in m/s (hover to see current wind gust speed)